sensor_id;sensor_type;location;lat;lon;timestamp;P1;durP1;ratioP1;P2;durP2;ratioP2
56343;SDS011;42245;42.058;24.700;2022-12-22T00:02:31;20.60;;;10.30;;
56343;SDS011;42245;42.058;24.700;2022-12-22T00:05:16;17.17;;;9.43;;
56343;SDS011;42245;42.058;24.700;2022-12-22T00:08:02;17.47;;;9.47;;
56343;SDS011;42245;42.058;24.700;2022-12-22T00:10:46;19.53;;;10.70;;
56343;SDS011;42245;42.058;24.700;2022-12-22T00:13:31;22.27;;;10.63;;
56343;SDS011;42245;42.058;24.700;2022-12-22T00:16:15;21.97;;;10.33;;
56343;SDS011;42245;42.058;24.700;2022-12-22T00:18:59;19.90;;;10.50;;
56343;SDS011;42245;42.058;24.700;2022-12-22T00:21:43;25.77;;;11.77;;
56343;SDS011;42245;42.058;24.700;2022-12-22T00:24:27;21.97;;;11.03;;
56343;SDS011;42245;42.058;24.700;2022-12-22T00:27:15;24.97;;;12.17;;
56343;SDS011;42245;42.058;24.700;2022-12-22T00:30:02;23.43;;;11.40;;
56343;SDS011;42245;42.058;24.700;2022-12-22T00:32:46;20.27;;;10.87;;
56343;SDS011;42245;42.058;24.700;2022-12-22T00:35:30;24.20;;;11.73;;
56343;SDS011;42245;42.058;24.700;2022-12-22T00:38:15;22.43;;;10.83;;
56343;SDS011;42245;42.058;24.700;2022-12-22T00:41:01;22.27;;;11.30;;
56343;SDS011;42245;42.058;24.700;2022-12-22T00:43:45;23.07;;;12.00;;
56343;SDS011;42245;42.058;24.700;2022-12-22T00:46:29;22.03;;;11.40;;
56343;SDS011;42245;42.058;24.700;2022-12-22T00:49:14;21.50;;;10.57;;
56343;SDS011;42245;42.058;24.700;2022-12-22T00:51:58;20.83;;;10.73;;
56343;SDS011;42245;42.058;24.700;2022-12-22T00:54:42;20.00;;;10.17;;
56343;SDS011;42245;42.058;24.700;2022-12-22T00:57:26;20.87;;;10.90;;
56343;SDS011;42245;42.058;24.700;2022-12-22T01:00:14;22.20;;;11.00;;
56343;SDS011;42245;42.058;24.700;2022-12-22T01:02:59;20.20;;;9.73;;
56343;SDS011;42245;42.058;24.700;2022-12-22T01:05:43;22.77;;;11.70;;
56343;SDS011;42245;42.058;24.700;2022-12-22T01:08:27;24.00;;;11.30;;
56343;SDS011;42245;42.058;24.700;2022-12-22T01:11:11;19.80;;;11.13;;
56343;SDS011;42245;42.058;24.700;2022-12-22T01:13:55;21.60;;;11.17;;
56343;SDS011;42245;42.058;24.700;2022-12-22T01:16:39;17.93;;;9.87;;
56343;SDS011;42245;42.058;24.700;2022-12-22T01:19:23;20.93;;;10.73;;
56343;SDS011;42245;42.058;24.700;2022-12-22T01:22:09;21.73;;;11.20;;
56343;SDS011;42245;42.058;24.700;2022-12-22T01:24:53;21.27;;;11.13;;
56343;SDS011;42245;42.058;24.700;2022-12-22T01:27:37;22.10;;;10.67;;
56343;SDS011;42245;42.058;24.700;2022-12-22T01:30:21;27.37;;;11.07;;
56343;SDS011;42245;42.058;24.700;2022-12-22T01:33:07;22.53;;;11.33;;
56343;SDS011;42245;42.058;24.700;2022-12-22T01:35:54;22.00;;;10.37;;
56343;SDS011;42245;42.058;24.700;2022-12-22T01:38:38;23.07;;;10.57;;
56343;SDS011;42245;42.058;24.700;2022-12-22T01:41:22;18.20;;;9.80;;
56343;SDS011;42245;42.058;24.700;2022-12-22T01:44:15;18.60;;;10.07;;
56343;SDS011;42245;42.058;24.700;2022-12-22T01:50:09;20.83;;;9.77;;
56343;SDS011;42245;42.058;24.700;2022-12-22T01:52:52;16.47;;;9.63;;
56343;SDS011;42245;42.058;24.700;2022-12-22T01:55:36;20.83;;;9.77;;
56343;SDS011;42245;42.058;24.700;2022-12-22T01:58:23;22.97;;;9.63;;
56343;SDS011;42245;42.058;24.700;2022-12-22T02:01:10;18.60;;;9.73;;
56343;SDS011;42245;42.058;24.700;2022-12-22T02:03:53;17.13;;;9.30;;
56343;SDS011;42245;42.058;24.700;2022-12-22T02:06:38;18.17;;;9.70;;
56343;SDS011;42245;42.058;24.700;2022-12-22T02:09:32;23.20;;;10.80;;
56343;SDS011;42245;42.058;24.700;2022-12-22T02:12:23;24.17;;;10.37;;
56343;SDS011;42245;42.058;24.700;2022-12-22T02:15:14;20.70;;;11.27;;
56343;SDS011;42245;42.058;24.700;2022-12-22T02:18:12;23.33;;;11.27;;
56343;SDS011;42245;42.058;24.700;2022-12-22T02:21:04;21.40;;;10.57;;
56343;SDS011;42245;42.058;24.700;2022-12-22T02:26:44;19.73;;;10.43;;
56343;SDS011;42245;42.058;24.700;2022-12-22T02:29:33;21.23;;;11.00;;
56343;SDS011;42245;42.058;24.700;2022-12-22T02:32:21;19.57;;;10.23;;
56343;SDS011;42245;42.058;24.700;2022-12-22T02:35:14;21.83;;;9.93;;
56343;SDS011;42245;42.058;24.700;2022-12-22T02:38:17;20.33;;;10.73;;
56343;SDS011;42245;42.058;24.700;2022-12-22T02:48:10;20.67;;;10.03;;
56343;SDS011;42245;42.058;24.700;2022-12-22T02:51:18;20.90;;;10.57;;
56343;SDS011;42245;42.058;24.700;2022-12-22T02:54:05;18.90;;;10.20;;
56343;SDS011;42245;42.058;24.700;2022-12-22T02:56:49;21.33;;;10.80;;
56343;SDS011;42245;42.058;24.700;2022-12-22T02:59:33;22.83;;;10.87;;
56343;SDS011;42245;42.058;24.700;2022-12-22T03:02:17;18.17;;;10.53;;
56343;SDS011;42245;42.058;24.700;2022-12-22T03:05:01;19.33;;;10.20;;
56343;SDS011;42245;42.058;24.700;2022-12-22T03:07:45;17.43;;;9.37;;
56343;SDS011;42245;42.058;24.700;2022-12-22T03:10:29;21.50;;;10.80;;
56343;SDS011;42245;42.058;24.700;2022-12-22T03:13:13;20.17;;;9.90;;
56343;SDS011;42245;42.058;24.700;2022-12-22T03:15:57;23.03;;;10.63;;
56343;SDS011;42245;42.058;24.700;2022-12-22T03:18:41;20.47;;;10.00;;
56343;SDS011;42245;42.058;24.700;2022-12-22T03:21:25;22.73;;;10.33;;
56343;SDS011;42245;42.058;24.700;2022-12-22T03:24:10;18.80;;;9.97;;
56343;SDS011;42245;42.058;24.700;2022-12-22T03:26:54;18.73;;;10.07;;
56343;SDS011;42245;42.058;24.700;2022-12-22T03:29:19;22.10;;;10.17;;
56343;SDS011;42245;42.058;24.700;2022-12-22T03:31:45;21.17;;;10.20;;
56343;SDS011;42245;42.058;24.700;2022-12-22T03:34:10;20.70;;;10.47;;
56343;SDS011;42245;42.058;24.700;2022-12-22T03:36:35;21.10;;;11.03;;
56343;SDS011;42245;42.058;24.700;2022-12-22T03:39:02;19.80;;;10.17;;
56343;SDS011;42245;42.058;24.700;2022-12-22T03:41:28;18.50;;;10.13;;
56343;SDS011;42245;42.058;24.700;2022-12-22T03:44:12;17.80;;;9.83;;
56343;SDS011;42245;42.058;24.700;2022-12-22T03:46:56;15.90;;;9.27;;
56343;SDS011;42245;42.058;24.700;2022-12-22T03:49:21;20.60;;;10.10;;
56343;SDS011;42245;42.058;24.700;2022-12-22T03:51:50;18.93;;;9.17;;
56343;SDS011;42245;42.058;24.700;2022-12-22T03:54:17;18.30;;;9.17;;
56343;SDS011;42245;42.058;24.700;2022-12-22T03:56:45;15.40;;;8.97;;
56343;SDS011;42245;42.058;24.700;2022-12-22T03:59:11;17.57;;;9.17;;
56343;SDS011;42245;42.058;24.700;2022-12-22T04:01:47;15.40;;;8.83;;
56343;SDS011;42245;42.058;24.700;2022-12-22T04:04:14;17.47;;;9.00;;
56343;SDS011;42245;42.058;24.700;2022-12-22T04:06:40;19.17;;;8.80;;
56343;SDS011;42245;42.058;24.700;2022-12-22T04:09:06;14.33;;;8.30;;
56343;SDS011;42245;42.058;24.700;2022-12-22T04:11:31;16.07;;;8.80;;
56343;SDS011;42245;42.058;24.700;2022-12-22T04:14:15;18.33;;;8.70;;
56343;SDS011;42245;42.058;24.700;2022-12-22T04:16:41;16.57;;;8.93;;
56343;SDS011;42245;42.058;24.700;2022-12-22T04:19:06;18.87;;;9.30;;
56343;SDS011;42245;42.058;24.700;2022-12-22T04:21:32;17.70;;;9.30;;
56343;SDS011;42245;42.058;24.700;2022-12-22T04:23:58;19.00;;;9.37;;
56343;SDS011;42245;42.058;24.700;2022-12-22T04:26:24;19.93;;;9.57;;
56343;SDS011;42245;42.058;24.700;2022-12-22T04:28:50;17.00;;;8.87;;
56343;SDS011;42245;42.058;24.700;2022-12-22T04:31:16;19.23;;;9.30;;
56343;SDS011;42245;42.058;24.700;2022-12-22T04:33:41;16.57;;;8.77;;
56343;SDS011;42245;42.058;24.700;2022-12-22T04:36:07;13.83;;;8.03;;
56343;SDS011;42245;42.058;24.700;2022-12-22T04:38:33;17.80;;;8.70;;
56343;SDS011;42245;42.058;24.700;2022-12-22T04:40:59;16.30;;;8.67;;
56343;SDS011;42245;42.058;24.700;2022-12-22T04:43:24;16.50;;;8.27;;
56343;SDS011;42245;42.058;24.700;2022-12-22T04:45:53;17.63;;;8.67;;
56343;SDS011;42245;42.058;24.700;2022-12-22T04:48:19;20.10;;;9.03;;
56343;SDS011;42245;42.058;24.700;2022-12-22T04:50:45;18.07;;;8.40;;
56343;SDS011;42245;42.058;24.700;2022-12-22T04:53:14;14.90;;;7.83;;
56343;SDS011;42245;42.058;24.700;2022-12-22T04:55:43;13.47;;;7.50;;
56343;SDS011;42245;42.058;24.700;2022-12-22T04:58:12;15.93;;;8.07;;
56343;SDS011;42245;42.058;24.700;2022-12-22T05:00:38;16.43;;;8.17;;
56343;SDS011;42245;42.058;24.700;2022-12-22T05:03:04;19.10;;;8.47;;
56343;SDS011;42245;42.058;24.700;2022-12-22T05:05:29;17.10;;;8.80;;
56343;SDS011;42245;42.058;24.700;2022-12-22T05:07:55;15.40;;;7.97;;
56343;SDS011;42245;42.058;24.700;2022-12-22T05:10:20;22.40;;;9.90;;
56343;SDS011;42245;42.058;24.700;2022-12-22T05:12:45;18.90;;;10.30;;
56343;SDS011;42245;42.058;24.700;2022-12-22T05:15:23;19.37;;;10.17;;
56343;SDS011;42245;42.058;24.700;2022-12-22T05:17:50;19.00;;;8.90;;
56343;SDS011;42245;42.058;24.700;2022-12-22T05:20:16;17.27;;;8.57;;
56343;SDS011;42245;42.058;24.700;2022-12-22T05:22:41;12.27;;;7.47;;
56343;SDS011;42245;42.058;24.700;2022-12-22T05:25:07;17.27;;;8.20;;
56343;SDS011;42245;42.058;24.700;2022-12-22T05:27:33;21.67;;;9.93;;
56343;SDS011;42245;42.058;24.700;2022-12-22T05:29:58;18.87;;;9.60;;
56343;SDS011;42245;42.058;24.700;2022-12-22T05:32:24;20.70;;;10.03;;
56343;SDS011;42245;42.058;24.700;2022-12-22T05:34:49;24.45;;;12.73;;
56343;SDS011;42245;42.058;24.700;2022-12-22T05:37:15;18.37;;;10.00;;
56343;SDS011;42245;42.058;24.700;2022-12-22T05:39:40;19.53;;;9.43;;
56343;SDS011;42245;42.058;24.700;2022-12-22T05:42:06;22.57;;;10.63;;
56343;SDS011;42245;42.058;24.700;2022-12-22T05:44:31;19.40;;;10.00;;
56343;SDS011;42245;42.058;24.700;2022-12-22T05:46:56;21.10;;;9.37;;
56343;SDS011;42245;42.058;24.700;2022-12-22T05:49:22;15.97;;;8.53;;
56343;SDS011;42245;42.058;24.700;2022-12-22T05:51:47;15.97;;;8.27;;
56343;SDS011;42245;42.058;24.700;2022-12-22T05:54:14;19.40;;;9.60;;
56343;SDS011;42245;42.058;24.700;2022-12-22T05:56:39;18.27;;;9.20;;
56343;SDS011;42245;42.058;24.700;2022-12-22T05:59:05;16.00;;;8.50;;
56343;SDS011;42245;42.058;24.700;2022-12-22T06:01:30;17.23;;;8.53;;
56343;SDS011;42245;42.058;24.700;2022-12-22T06:03:55;17.47;;;8.67;;
56343;SDS011;42245;42.058;24.700;2022-12-22T06:06:21;19.50;;;10.50;;
56343;SDS011;42245;42.058;24.700;2022-12-22T06:08:46;15.87;;;8.07;;
56343;SDS011;42245;42.058;24.700;2022-12-22T06:11:11;15.03;;;7.87;;
56343;SDS011;42245;42.058;24.700;2022-12-22T06:13:42;14.23;;;7.80;;
56343;SDS011;42245;42.058;24.700;2022-12-22T06:16:07;14.70;;;7.97;;
56343;SDS011;42245;42.058;24.700;2022-12-22T06:18:33;14.77;;;7.73;;
56343;SDS011;42245;42.058;24.700;2022-12-22T06:20:58;16.43;;;7.83;;
56343;SDS011;42245;42.058;24.700;2022-12-22T06:23:23;19.70;;;11.17;;
56343;SDS011;42245;42.058;24.700;2022-12-22T06:25:52;19.53;;;11.43;;
56343;SDS011;42245;42.058;24.700;2022-12-22T06:28:21;12.70;;;6.23;;
56343;SDS011;42245;42.058;24.700;2022-12-22T06:30:47;18.10;;;10.20;;
56343;SDS011;42245;42.058;24.700;2022-12-22T06:33:13;13.67;;;6.77;;
56343;SDS011;42245;42.058;24.700;2022-12-22T06:35:38;18.10;;;8.40;;
56343;SDS011;42245;42.058;24.700;2022-12-22T07:29:16;9.50;;;5.83;;
56343;SDS011;42245;42.058;24.700;2022-12-22T07:31:41;14.83;;;8.00;;
56343;SDS011;42245;42.058;24.700;2022-12-22T07:34:06;16.80;;;8.10;;
56343;SDS011;42245;42.058;24.700;2022-12-22T07:36:32;63.30;;;25.57;;
56343;SDS011;42245;42.058;24.700;2022-12-22T07:38:57;87.53;;;33.73;;
56343;SDS011;42245;42.058;24.700;2022-12-22T07:41:22;87.17;;;32.30;;
56343;SDS011;42245;42.058;24.700;2022-12-22T07:44:06;79.90;;;31.03;;
56343;SDS011;42245;42.058;24.700;2022-12-22T07:46:36;51.43;;;21.97;;
56343;SDS011;42245;42.058;24.700;2022-12-22T07:49:03;44.27;;;18.63;;
56343;SDS011;42245;42.058;24.700;2022-12-22T07:51:48;33.03;;;14.80;;
56343;SDS011;42245;42.058;24.700;2022-12-22T07:54:13;29.90;;;13.67;;
56343;SDS011;42245;42.058;24.700;2022-12-22T07:56:39;28.03;;;12.57;;
56343;SDS011;42245;42.058;24.700;2022-12-22T07:59:05;25.03;;;12.80;;
56343;SDS011;42245;42.058;24.700;2022-12-22T08:01:31;27.23;;;13.23;;
56343;SDS011;42245;42.058;24.700;2022-12-22T08:03:57;26.07;;;14.17;;
56343;SDS011;42245;42.058;24.700;2022-12-22T08:06:22;111.63;;;37.57;;
56343;SDS011;42245;42.058;24.700;2022-12-22T08:08:48;77.30;;;29.07;;
56343;SDS011;42245;42.058;24.700;2022-12-22T08:11:13;38.43;;;17.30;;
56343;SDS011;42245;42.058;24.700;2022-12-22T08:13:39;36.03;;;16.57;;
56343;SDS011;42245;42.058;24.700;2022-12-22T08:16:05;41.80;;;18.50;;
56343;SDS011;42245;42.058;24.700;2022-12-22T08:18:32;39.03;;;16.93;;
56343;SDS011;42245;42.058;24.700;2022-12-22T08:20:57;68.27;;;29.77;;
56343;SDS011;42245;42.058;24.700;2022-12-22T08:23:23;76.57;;;34.33;;
56343;SDS011;42245;42.058;24.700;2022-12-22T08:25:50;70.40;;;30.77;;
56343;SDS011;42245;42.058;24.700;2022-12-22T08:28:20;57.53;;;30.50;;
56343;SDS011;42245;42.058;24.700;2022-12-22T08:30:46;57.73;;;27.67;;
56343;SDS011;42245;42.058;24.700;2022-12-22T08:33:12;58.05;;;29.42;;
56343;SDS011;42245;42.058;24.700;2022-12-22T08:35:37;43.20;;;25.23;;
56343;SDS011;42245;42.058;24.700;2022-12-22T08:38:03;42.40;;;23.52;;
56343;SDS011;42245;42.058;24.700;2022-12-22T08:40:29;40.55;;;22.67;;
56343;SDS011;42245;42.058;24.700;2022-12-22T08:42:57;36.90;;;21.50;;
56343;SDS011;42245;42.058;24.700;2022-12-22T08:45:24;41.03;;;24.10;;
56343;SDS011;42245;42.058;24.700;2022-12-22T08:47:50;41.22;;;23.65;;
56343;SDS011;42245;42.058;24.700;2022-12-22T08:50:15;43.60;;;25.83;;
56343;SDS011;42245;42.058;24.700;2022-12-22T08:52:41;43.58;;;26.83;;
56343;SDS011;42245;42.058;24.700;2022-12-22T08:55:06;50.25;;;28.60;;
56343;SDS011;42245;42.058;24.700;2022-12-22T08:57:32;47.28;;;28.52;;
56343;SDS011;42245;42.058;24.700;2022-12-22T08:59:58;60.60;;;35.45;;
56343;SDS011;42245;42.058;24.700;2022-12-22T09:02:23;44.80;;;27.08;;
56343;SDS011;42245;42.058;24.700;2022-12-22T09:04:48;50.28;;;28.52;;
56343;SDS011;42245;42.058;24.700;2022-12-22T09:07:14;55.38;;;31.27;;
56343;SDS011;42245;42.058;24.700;2022-12-22T09:09:40;49.22;;;29.90;;
56343;SDS011;42245;42.058;24.700;2022-12-22T09:12:05;55.00;;;30.95;;
56343;SDS011;42245;42.058;24.700;2022-12-22T09:14:31;52.63;;;31.88;;
56343;SDS011;42245;42.058;24.700;2022-12-22T09:16:56;50.42;;;32.65;;
56343;SDS011;42245;42.058;24.700;2022-12-22T09:19:22;61.05;;;37.60;;
56343;SDS011;42245;42.058;24.700;2022-12-22T09:21:47;48.95;;;28.48;;
56343;SDS011;42245;42.058;24.700;2022-12-22T09:24:13;48.28;;;27.60;;
56343;SDS011;42245;42.058;24.700;2022-12-22T09:26:38;52.80;;;31.70;;
56343;SDS011;42245;42.058;24.700;2022-12-22T09:29:04;54.92;;;31.42;;
56343;SDS011;42245;42.058;24.700;2022-12-22T09:31:29;63.75;;;36.92;;
56343;SDS011;42245;42.058;24.700;2022-12-22T09:33:55;57.97;;;35.65;;
56343;SDS011;42245;42.058;24.700;2022-12-22T09:36:22;59.30;;;34.22;;
56343;SDS011;42245;42.058;24.700;2022-12-22T09:38:49;89.57;;;49.28;;
56343;SDS011;42245;42.058;24.700;2022-12-22T09:41:25;56.78;;;32.78;;
56343;SDS011;42245;42.058;24.700;2022-12-22T09:43:55;52.72;;;31.20;;
56343;SDS011;42245;42.058;24.700;2022-12-22T09:46:25;51.38;;;29.88;;
56343;SDS011;42245;42.058;24.700;2022-12-22T09:48:52;50.00;;;29.65;;
56343;SDS011;42245;42.058;24.700;2022-12-22T09:51:19;62.25;;;30.83;;
56343;SDS011;42245;42.058;24.700;2022-12-22T09:53:45;102.90;;;55.25;;
56343;SDS011;42245;42.058;24.700;2022-12-22T09:56:13;70.72;;;35.80;;
56343;SDS011;42245;42.058;24.700;2022-12-22T09:58:40;82.85;;;39.83;;
56343;SDS011;42245;42.058;24.700;2022-12-22T10:06:15;59.50;;;30.50;;
56343;SDS011;42245;42.058;24.700;2022-12-22T10:08:44;62.83;;;34.20;;
56343;SDS011;42245;42.058;24.700;2022-12-22T10:11:16;54.17;;;28.90;;
56343;SDS011;42245;42.058;24.700;2022-12-22T10:13:42;61.80;;;30.60;;
56343;SDS011;42245;42.058;24.700;2022-12-22T10:16:15;66.38;;;31.63;;
56343;SDS011;42245;42.058;24.700;2022-12-22T10:19:06;54.67;;;30.15;;
56343;SDS011;42245;42.058;24.700;2022-12-22T10:21:34;57.53;;;30.95;;
56343;SDS011;42245;42.058;24.700;2022-12-22T10:23:59;58.00;;;31.77;;
56343;SDS011;42245;42.058;24.700;2022-12-22T10:26:26;53.92;;;30.73;;
56343;SDS011;42245;42.058;24.700;2022-12-22T10:31:32;54.35;;;28.90;;
56343;SDS011;42245;42.058;24.700;2022-12-22T10:34:14;57.65;;;30.23;;
56343;SDS011;42245;42.058;24.700;2022-12-22T10:36:46;75.30;;;34.72;;
56343;SDS011;42245;42.058;24.700;2022-12-22T10:39:21;59.15;;;29.73;;
56343;SDS011;42245;42.058;24.700;2022-12-22T10:41:48;66.05;;;31.42;;
56343;SDS011;42245;42.058;24.700;2022-12-22T10:46:45;66.28;;;32.42;;
56343;SDS011;42245;42.058;24.700;2022-12-22T10:49:17;70.20;;;31.10;;
56343;SDS011;42245;42.058;24.700;2022-12-22T10:51:47;144.43;;;58.58;;
56343;SDS011;42245;42.058;24.700;2022-12-22T10:54:33;60.90;;;31.55;;
56343;SDS011;42245;42.058;24.700;2022-12-22T10:57:01;72.50;;;38.00;;
56343;SDS011;42245;42.058;24.700;2022-12-22T10:59:35;56.90;;;32.30;;
56343;SDS011;42245;42.058;24.700;2022-12-22T11:02:32;57.30;;;29.65;;
56343;SDS011;42245;42.058;24.700;2022-12-22T11:05:00;63.33;;;32.85;;
56343;SDS011;42245;42.058;24.700;2022-12-22T11:07:29;59.70;;;31.17;;
56343;SDS011;42245;42.058;24.700;2022-12-22T11:09:56;81.93;;;32.78;;
56343;SDS011;42245;42.058;24.700;2022-12-22T11:12:25;79.30;;;34.13;;
56343;SDS011;42245;42.058;24.700;2022-12-22T11:20:39;42.72;;;22.98;;
56343;SDS011;42245;42.058;24.700;2022-12-22T11:31:22;44.92;;;24.52;;
56343;SDS011;42245;42.058;24.700;2022-12-22T11:37:26;50.83;;;31.50;;
56343;SDS011;42245;42.058;24.700;2022-12-22T11:40:10;58.55;;;33.60;;
56343;SDS011;42245;42.058;24.700;2022-12-22T11:50:33;54.30;;;31.25;;
56343;SDS011;42245;42.058;24.700;2022-12-22T11:53:16;49.75;;;28.00;;
56343;SDS011;42245;42.058;24.700;2022-12-22T12:12:34;37.50;;;24.10;;
56343;SDS011;42245;42.058;24.700;2022-12-22T12:29:18;40.25;;;22.60;;
56343;SDS011;42245;42.058;24.700;2022-12-22T12:31:59;45.78;;;25.50;;
56343;SDS011;42245;42.058;24.700;2022-12-22T12:34:30;36.10;;;20.80;;
56343;SDS011;42245;42.058;24.700;2022-12-22T12:42:52;46.03;;;25.42;;
56343;SDS011;42245;42.058;24.700;2022-12-22T12:50:48;50.20;;;27.88;;
56343;SDS011;42245;42.058;24.700;2022-12-22T12:53:15;45.03;;;27.15;;
56343;SDS011;42245;42.058;24.700;2022-12-22T13:01:00;51.95;;;29.17;;
56343;SDS011;42245;42.058;24.700;2022-12-22T13:05:52;53.83;;;31.20;;
56343;SDS011;42245;42.058;24.700;2022-12-22T13:08:24;54.78;;;31.08;;
56343;SDS011;42245;42.058;24.700;2022-12-22T13:15:47;51.03;;;29.88;;
56343;SDS011;42245;42.058;24.700;2022-12-22T13:20:39;98.20;;;45.50;;
56343;SDS011;42245;42.058;24.700;2022-12-22T13:23:09;104.75;;;48.28;;
56343;SDS011;42245;42.058;24.700;2022-12-22T13:25:50;68.28;;;36.25;;
56343;SDS011;42245;42.058;24.700;2022-12-22T13:28:19;66.07;;;35.70;;
56343;SDS011;42245;42.058;24.700;2022-12-22T13:30:49;60.47;;;32.38;;
56343;SDS011;42245;42.058;24.700;2022-12-22T13:33:18;64.88;;;33.08;;
56343;SDS011;42245;42.058;24.700;2022-12-22T13:35:45;56.05;;;31.13;;
56343;SDS011;42245;42.058;24.700;2022-12-22T13:41:16;56.17;;;30.42;;
56343;SDS011;42245;42.058;24.700;2022-12-22T13:43:45;53.38;;;30.20;;
56343;SDS011;42245;42.058;24.700;2022-12-22T13:46:12;54.08;;;28.05;;
56343;SDS011;42245;42.058;24.700;2022-12-22T13:48:39;57.15;;;29.92;;
56343;SDS011;42245;42.058;24.700;2022-12-22T13:51:07;51.40;;;27.10;;
56343;SDS011;42245;42.058;24.700;2022-12-22T13:53:39;52.80;;;27.30;;
56343;SDS011;42245;42.058;24.700;2022-12-22T13:56:14;49.88;;;27.48;;
56343;SDS011;42245;42.058;24.700;2022-12-22T13:58:50;47.45;;;25.08;;
56343;SDS011;42245;42.058;24.700;2022-12-22T14:01:19;42.10;;;25.63;;
56343;SDS011;42245;42.058;24.700;2022-12-22T14:04:00;49.33;;;26.20;;
56343;SDS011;42245;42.058;24.700;2022-12-22T14:09:08;49.73;;;25.47;;
56343;SDS011;42245;42.058;24.700;2022-12-22T14:11:34;54.40;;;26.93;;
56343;SDS011;42245;42.058;24.700;2022-12-22T14:13:59;55.03;;;27.47;;
56343;SDS011;42245;42.058;24.700;2022-12-22T14:16:25;64.93;;;34.23;;
56343;SDS011;42245;42.058;24.700;2022-12-22T14:18:51;58.73;;;32.23;;
56343;SDS011;42245;42.058;24.700;2022-12-22T14:21:17;56.47;;;30.87;;
56343;SDS011;42245;42.058;24.700;2022-12-22T14:23:42;56.90;;;30.07;;
56343;SDS011;42245;42.058;24.700;2022-12-22T14:26:11;53.87;;;28.80;;
56343;SDS011;42245;42.058;24.700;2022-12-22T14:28:42;45.17;;;26.67;;
56343;SDS011;42245;42.058;24.700;2022-12-22T14:31:14;47.07;;;25.23;;
56343;SDS011;42245;42.058;24.700;2022-12-22T14:33:49;48.40;;;25.93;;
56343;SDS011;42245;42.058;24.700;2022-12-22T14:36:21;45.10;;;25.07;;
56343;SDS011;42245;42.058;24.700;2022-12-22T14:38:54;50.97;;;26.27;;
56343;SDS011;42245;42.058;24.700;2022-12-22T14:41:30;47.23;;;23.83;;
56343;SDS011;42245;42.058;24.700;2022-12-22T14:46:44;42.67;;;23.73;;
56343;SDS011;42245;42.058;24.700;2022-12-22T14:49:33;41.00;;;22.40;;
56343;SDS011;42245;42.058;24.700;2022-12-22T14:52:05;38.50;;;20.63;;
56343;SDS011;42245;42.058;24.700;2022-12-22T14:54:31;41.90;;;20.93;;
56343;SDS011;42245;42.058;24.700;2022-12-22T14:57:01;42.53;;;21.63;;
56343;SDS011;42245;42.058;24.700;2022-12-22T14:59:29;40.23;;;20.50;;
56343;SDS011;42245;42.058;24.700;2022-12-22T15:02:00;42.67;;;22.97;;
56343;SDS011;42245;42.058;24.700;2022-12-22T15:04:27;42.93;;;22.60;;
56343;SDS011;42245;42.058;24.700;2022-12-22T15:07:02;39.60;;;21.93;;
56343;SDS011;42245;42.058;24.700;2022-12-22T15:09:30;40.17;;;21.93;;
56343;SDS011;42245;42.058;24.700;2022-12-22T15:12:01;39.53;;;20.07;;
56343;SDS011;42245;42.058;24.700;2022-12-22T15:14:29;38.87;;;20.07;;
56343;SDS011;42245;42.058;24.700;2022-12-22T15:16:57;39.37;;;19.47;;
56343;SDS011;42245;42.058;24.700;2022-12-22T15:19:25;38.93;;;20.37;;
56343;SDS011;42245;42.058;24.700;2022-12-22T15:21:53;42.40;;;21.97;;
56343;SDS011;42245;42.058;24.700;2022-12-22T15:24:18;47.67;;;23.33;;
56343;SDS011;42245;42.058;24.700;2022-12-22T15:26:44;43.40;;;21.70;;
56343;SDS011;42245;42.058;24.700;2022-12-22T15:29:10;37.23;;;19.30;;
56343;SDS011;42245;42.058;24.700;2022-12-22T15:31:36;36.23;;;19.47;;
56343;SDS011;42245;42.058;24.700;2022-12-22T15:34:02;37.63;;;18.73;;
56343;SDS011;42245;42.058;24.700;2022-12-22T15:36:31;32.00;;;16.70;;
56343;SDS011;42245;42.058;24.700;2022-12-22T15:38:56;32.23;;;15.83;;
56343;SDS011;42245;42.058;24.700;2022-12-22T15:41:21;27.50;;;14.57;;
56343;SDS011;42245;42.058;24.700;2022-12-22T15:43:47;33.17;;;16.03;;
56343;SDS011;42245;42.058;24.700;2022-12-22T15:46:13;35.97;;;16.47;;
56343;SDS011;42245;42.058;24.700;2022-12-22T15:48:40;34.17;;;15.63;;
56343;SDS011;42245;42.058;24.700;2022-12-22T15:51:09;34.77;;;15.70;;
56343;SDS011;42245;42.058;24.700;2022-12-22T15:53:41;28.03;;;13.57;;
56343;SDS011;42245;42.058;24.700;2022-12-22T15:56:08;29.13;;;14.33;;
56343;SDS011;42245;42.058;24.700;2022-12-22T15:58:36;24.40;;;12.30;;
56343;SDS011;42245;42.058;24.700;2022-12-22T16:01:02;23.10;;;11.97;;
56343;SDS011;42245;42.058;24.700;2022-12-22T16:03:27;24.30;;;12.40;;
56343;SDS011;42245;42.058;24.700;2022-12-22T16:05:52;27.80;;;13.87;;
56343;SDS011;42245;42.058;24.700;2022-12-22T16:08:19;28.43;;;14.07;;
56343;SDS011;42245;42.058;24.700;2022-12-22T16:10:46;26.83;;;13.30;;
56343;SDS011;42245;42.058;24.700;2022-12-22T16:13:13;27.20;;;14.73;;
56343;SDS011;42245;42.058;24.700;2022-12-22T16:15:39;29.27;;;15.47;;
56343;SDS011;42245;42.058;24.700;2022-12-22T16:18:05;29.63;;;15.20;;
56343;SDS011;42245;42.058;24.700;2022-12-22T16:20:34;28.50;;;14.20;;
56343;SDS011;42245;42.058;24.700;2022-12-22T16:23:01;24.67;;;12.77;;
56343;SDS011;42245;42.058;24.700;2022-12-22T16:25:31;25.57;;;12.83;;
56343;SDS011;42245;42.058;24.700;2022-12-22T16:27:59;27.43;;;12.57;;
56343;SDS011;42245;42.058;24.700;2022-12-22T16:30:26;22.30;;;12.07;;
56343;SDS011;42245;42.058;24.700;2022-12-22T16:32:53;22.20;;;11.33;;
56343;SDS011;42245;42.058;24.700;2022-12-22T16:35:20;24.53;;;12.10;;
56343;SDS011;42245;42.058;24.700;2022-12-22T16:37:47;23.23;;;11.73;;
56343;SDS011;42245;42.058;24.700;2022-12-22T16:40:13;25.10;;;12.93;;
56343;SDS011;42245;42.058;24.700;2022-12-22T16:42:41;19.53;;;10.23;;
56343;SDS011;42245;42.058;24.700;2022-12-22T16:45:13;23.93;;;12.43;;
56343;SDS011;42245;42.058;24.700;2022-12-22T16:47:45;28.93;;;12.37;;
56343;SDS011;42245;42.058;24.700;2022-12-22T16:50:15;25.93;;;12.53;;
56343;SDS011;42245;42.058;24.700;2022-12-22T16:52:41;23.80;;;12.37;;
56343;SDS011;42245;42.058;24.700;2022-12-22T16:57:43;18.97;;;9.70;;
56343;SDS011;42245;42.058;24.700;2022-12-22T17:00:27;21.77;;;10.70;;
56343;SDS011;42245;42.058;24.700;2022-12-22T17:02:55;15.77;;;8.40;;
56343;SDS011;42245;42.058;24.700;2022-12-22T17:05:28;17.27;;;9.07;;
56343;SDS011;42245;42.058;24.700;2022-12-22T17:07:57;19.77;;;10.10;;
56343;SDS011;42245;42.058;24.700;2022-12-22T17:10:23;20.23;;;10.27;;
56343;SDS011;42245;42.058;24.700;2022-12-22T17:12:49;18.00;;;9.43;;
56343;SDS011;42245;42.058;24.700;2022-12-22T17:15:18;23.27;;;11.03;;
56343;SDS011;42245;42.058;24.700;2022-12-22T17:17:45;19.50;;;11.13;;
56343;SDS011;42245;42.058;24.700;2022-12-22T17:20:14;20.00;;;10.70;;
56343;SDS011;42245;42.058;24.700;2022-12-22T17:22:44;22.17;;;11.67;;
56343;SDS011;42245;42.058;24.700;2022-12-22T17:25:16;25.33;;;12.63;;
56343;SDS011;42245;42.058;24.700;2022-12-22T17:27:45;18.50;;;10.67;;